createdAt,value
2023-04-27T00:00:04.783Z,10.61
2023-04-27T00:02:38.777Z,10.63
2023-04-27T00:05:32.646Z,10.54
2023-04-27T00:08:05.292Z,10.60
2023-04-27T00:10:49.931Z,10.48
2023-04-27T00:13:28.489Z,10.54
2023-04-27T00:16:05.767Z,10.62
2023-04-27T00:18:36.130Z,10.71
2023-04-27T00:21:16.762Z,10.53
2023-04-27T00:23:47.585Z,10.55
2023-04-27T00:26:24.758Z,10.59
2023-04-27T00:28:53.745Z,10.53
2023-04-27T00:31:21.368Z,10.57
2023-04-27T00:33:51.985Z,10.52
2023-04-27T00:36:19.576Z,10.49
2023-04-27T00:38:52.782Z,10.53
2023-04-27T00:41:23.341Z,10.47
2023-04-27T00:44:11.027Z,10.72
2023-04-27T00:46:46.412Z,10.57
2023-04-27T00:49:19.308Z,10.46
2023-04-27T00:51:51.556Z,10.43
2023-04-27T00:54:28.590Z,10.41
2023-04-27T00:57:23.191Z,10.36
2023-04-27T01:00:06.460Z,10.35
2023-04-27T01:02:39.915Z,10.40
2023-04-27T01:05:27.014Z,10.23
2023-04-27T01:08:10.071Z,10.32
2023-04-27T01:10:53.838Z,10.30
2023-04-27T01:13:28.323Z,10.24
2023-04-27T01:16:08.274Z,10.35
2023-04-27T01:18:41.980Z,10.18
2023-04-27T01:21:18.791Z,10.21
2023-04-27T01:23:47.017Z,10.06
2023-04-27T01:26:19.233Z,9.93
2023-04-27T01:29:10.993Z,9.88
2023-04-27T01:34:40.306Z,9.73
2023-04-27T01:37:13.046Z,9.79
2023-04-27T01:39:40.528Z,9.68
2023-04-27T01:42:15.271Z,9.68
2023-04-27T01:44:52.805Z,9.61
2023-04-27T01:47:29.586Z,9.59
2023-04-27T01:50:08.506Z,9.58
2023-04-27T01:52:36.229Z,9.63
2023-04-27T01:55:12.281Z,9.66
2023-04-27T01:57:44.044Z,9.69
2023-04-27T02:00:12.673Z,9.73
2023-04-27T02:02:39.742Z,9.61
2023-04-27T02:05:07.851Z,9.56
2023-04-27T02:07:38.054Z,9.50
2023-04-27T02:10:05.220Z,9.36
2023-04-27T02:12:31.916Z,9.30
2023-04-27T02:14:58.794Z,9.46
2023-04-27T02:17:25.765Z,9.26
2023-04-27T02:19:52.731Z,9.31
2023-04-27T02:22:19.665Z,9.27
2023-04-27T02:24:50.945Z,9.21
2023-04-27T02:27:17.717Z,9.29
2023-04-27T02:29:46.100Z,9.21
2023-04-27T02:32:13.318Z,9.22
2023-04-27T02:34:40.310Z,9.24
2023-04-27T02:37:07.195Z,9.25
2023-04-27T02:39:33.929Z,9.16
2023-04-27T02:42:01.604Z,9.09
2023-04-27T02:44:28.960Z,9.08
2023-04-27T02:47:00.796Z,9.05
2023-04-27T02:49:27.703Z,9.06
2023-04-27T02:51:54.706Z,9.09
2023-04-27T02:54:21.346Z,9.21
2023-04-27T02:56:48.031Z,9.16
2023-04-27T02:59:15.443Z,9.20
2023-04-27T03:01:42.585Z,8.99
2023-04-27T03:04:09.823Z,9.05
2023-04-27T03:06:38.194Z,8.90
2023-04-27T03:09:05.511Z,9.07
2023-04-27T03:11:36.169Z,9.09
2023-04-27T03:14:07.645Z,8.93
2023-04-27T03:16:36.248Z,8.88
2023-04-27T03:19:04.013Z,8.92
2023-04-27T03:21:32.171Z,8.87
2023-04-27T03:23:58.935Z,9.05
2023-04-27T03:26:26.560Z,8.97
2023-04-27T03:28:53.295Z,8.95
2023-04-27T03:31:20.197Z,8.92
2023-04-27T03:33:47.952Z,9.01
2023-04-27T03:36:15.027Z,8.96
2023-04-27T03:38:42.031Z,8.98
2023-04-27T03:41:08.889Z,9.31
2023-04-27T03:43:35.722Z,8.91
2023-04-27T03:46:02.622Z,8.97
2023-04-27T03:48:29.449Z,8.92
2023-04-27T03:50:56.407Z,8.95
2023-04-27T03:53:23.400Z,8.90
2023-04-27T03:58:40.717Z,8.92
2023-04-27T04:01:11.294Z,8.57
2023-04-27T04:03:39.196Z,8.81
2023-04-27T04:06:06.740Z,8.96
2023-04-27T04:08:34.590Z,8.95
2023-04-27T04:13:46.709Z,8.65
2023-04-27T04:16:16.708Z,8.75
2023-04-27T04:18:51.768Z,8.63
2023-04-27T04:21:21.786Z,8.75
2023-04-27T04:23:48.884Z,8.56
2023-04-27T04:26:18.366Z,8.68
2023-04-27T04:28:46.012Z,8.71
2023-04-27T04:33:54.270Z,8.73
2023-04-27T04:36:21.408Z,8.85
2023-04-27T04:38:48.122Z,8.74
2023-04-27T04:41:18.839Z,8.97
2023-04-27T04:43:51.005Z,8.92
2023-04-27T04:46:28.038Z,9.06
2023-04-27T04:48:59.538Z,9.68
2023-04-27T04:51:26.969Z,9.99
2023-04-27T04:53:53.717Z,10.36
2023-04-27T04:56:33.478Z,10.30
2023-04-27T04:59:05.723Z,10.26
2023-04-27T05:01:32.875Z,10.67
2023-04-27T05:04:00.701Z,10.42
2023-04-27T05:06:28.064Z,10.94
2023-04-27T05:08:55.097Z,11.47
2023-04-27T05:11:22.345Z,10.93
2023-04-27T05:13:50.073Z,10.85
2023-04-27T05:16:30.652Z,10.81
2023-04-27T05:18:57.812Z,10.91
2023-04-27T05:21:24.785Z,11.10
2023-04-27T05:24:02.334Z,11.05
2023-04-27T05:26:29.310Z,11.16
2023-04-27T05:31:37.585Z,11.24
2023-04-27T05:34:06.775Z,11.25
2023-04-27T05:36:38.861Z,11.54
2023-04-27T05:39:18.076Z,11.68
2023-04-27T05:41:45.559Z,11.45
2023-04-27T05:44:12.468Z,11.46
2023-04-27T05:46:44.805Z,11.60
2023-04-27T05:49:14.312Z,11.65
2023-04-27T05:51:44.239Z,11.92
2023-04-27T05:54:13.052Z,12.17
2023-04-27T05:56:50.760Z,12.35
2023-04-27T05:59:18.119Z,11.74
2023-04-27T06:01:53.120Z,11.73
2023-04-27T06:04:20.400Z,12.36
2023-04-27T06:06:47.754Z,12.48
2023-04-27T06:09:20.207Z,11.98
2023-04-27T06:11:52.906Z,12.34
2023-04-27T06:14:20.653Z,12.81
2023-04-27T06:16:56.636Z,12.73
2023-04-27T06:19:24.799Z,12.57
2023-04-27T06:24:42.515Z,12.28
2023-04-27T06:27:13.735Z,12.23
2023-04-27T06:29:42.254Z,12.17
2023-04-27T06:32:09.616Z,12.57
2023-04-27T06:34:42.343Z,12.34
2023-04-27T06:37:16.611Z,12.60
2023-04-27T06:39:44.962Z,12.45
2023-04-27T06:45:10.000Z,12.52
2023-04-27T06:47:48.460Z,12.50
2023-04-27T06:50:16.858Z,12.67
2023-04-27T06:52:54.395Z,12.91
2023-04-27T06:55:21.801Z,13.12
2023-04-27T06:57:49.077Z,12.74
2023-04-27T07:00:16.351Z,13.13
2023-04-27T07:02:44.211Z,13.32
2023-04-27T07:05:13.519Z,13.26
2023-04-27T07:07:40.439Z,13.32
2023-04-27T07:10:08.381Z,13.58
2023-04-27T07:12:35.452Z,13.96
2023-04-27T07:15:04.613Z,13.98
2023-04-27T07:17:31.583Z,13.90
2023-04-27T07:19:58.896Z,13.50
2023-04-27T07:22:25.807Z,13.56
2023-04-27T07:24:52.717Z,13.16
2023-04-27T07:27:20.545Z,14.11
2023-04-27T07:29:50.867Z,14.11
2023-04-27T07:32:18.188Z,13.98
2023-04-27T07:34:52.860Z,14.34
2023-04-27T07:37:21.501Z,14.58
2023-04-27T07:39:49.457Z,14.01
2023-04-27T07:42:25.333Z,14.43
2023-04-27T07:44:52.751Z,14.19
2023-04-27T07:47:19.830Z,14.36
2023-04-27T07:49:49.834Z,14.24
2023-04-27T07:52:16.863Z,14.52
2023-04-27T07:54:43.557Z,15.39
2023-04-27T07:57:14.048Z,15.51
2023-04-27T07:59:43.760Z,15.28
2023-04-27T08:02:19.769Z,15.08
2023-04-27T08:04:50.980Z,14.74
2023-04-27T08:07:20.305Z,15.22
2023-04-27T08:09:57.823Z,15.01
2023-04-27T08:12:24.806Z,15.71
2023-04-27T08:14:52.066Z,14.74
2023-04-27T08:17:19.777Z,15.39
2023-04-27T08:19:49.605Z,15.01
2023-04-27T08:22:21.733Z,15.31
2023-04-27T08:24:48.461Z,15.04
2023-04-27T08:27:15.847Z,15.41
2023-04-27T08:29:49.659Z,15.37
2023-04-27T08:32:16.915Z,15.04
2023-04-27T08:34:46.458Z,15.79
2023-04-27T08:37:13.495Z,14.94
2023-04-27T08:39:40.827Z,14.86
2023-04-27T08:42:12.321Z,15.46
2023-04-27T08:44:43.229Z,15.49
2023-04-27T08:47:13.198Z,16.32
2023-04-27T08:49:43.236Z,15.59
2023-04-27T08:52:16.835Z,15.67
2023-04-27T08:54:47.108Z,15.44
2023-04-27T08:57:18.720Z,14.88
2023-04-27T08:59:48.856Z,15.31
2023-04-27T09:02:43.954Z,15.13
2023-04-27T09:05:19.512Z,15.21
2023-04-27T09:08:05.909Z,15.11
2023-04-27T09:10:52.429Z,15.52
2023-04-27T09:13:19.755Z,15.09
2023-04-27T09:15:52.393Z,15.15
2023-04-27T09:18:23.660Z,15.30
2023-04-27T09:20:54.064Z,15.09
2023-04-27T09:23:34.362Z,15.08
2023-04-27T09:26:19.389Z,14.96
2023-04-27T09:28:52.914Z,15.56
2023-04-27T09:31:20.824Z,15.22
2023-04-27T09:33:55.782Z,15.69
2023-04-27T09:36:23.436Z,15.31
2023-04-27T09:38:52.496Z,15.22
2023-04-27T09:41:20.186Z,15.55
2023-04-27T09:43:47.529Z,15.33
2023-04-27T09:46:14.950Z,15.02
2023-04-27T09:48:42.664Z,16.16
2023-04-27T09:51:10.762Z,16.41
2023-04-27T09:53:59.046Z,16.89
2023-04-27T09:57:02.653Z,16.21
2023-04-27T09:59:50.930Z,16.22
2023-04-27T10:02:25.377Z,16.05
2023-04-27T10:05:23.470Z,16.38
2023-04-27T10:07:52.695Z,16.09
2023-04-27T10:10:20.688Z,16.29
2023-04-27T10:13:24.270Z,16.25
2023-04-27T10:15:52.555Z,15.42
2023-04-27T10:18:27.807Z,15.85
2023-04-27T10:20:54.936Z,15.72
2023-04-27T10:23:26.636Z,15.06
2023-04-27T10:25:58.429Z,15.62
2023-04-27T10:28:25.573Z,15.35
2023-04-27T10:30:52.763Z,15.53
2023-04-27T10:33:23.045Z,15.73
2023-04-27T10:35:59.085Z,15.61
2023-04-27T10:38:30.908Z,15.41
2023-04-27T10:40:59.106Z,15.94
2023-04-27T10:43:27.918Z,15.68
2023-04-27T10:46:12.020Z,15.61
2023-04-27T10:48:45.601Z,15.69
2023-04-27T10:51:17.926Z,15.36
2023-04-27T10:53:44.864Z,15.65
2023-04-27T10:56:11.721Z,15.74
2023-04-27T11:01:12.170Z,15.97
2023-04-27T11:03:40.326Z,15.55
2023-04-27T11:06:07.474Z,15.84
2023-04-27T11:08:44.212Z,15.46
2023-04-27T11:11:17.046Z,15.67
2023-04-27T11:13:44.865Z,15.74
2023-04-27T11:16:11.801Z,15.53
2023-04-27T11:18:39.025Z,15.23
2023-04-27T11:21:10.094Z,15.76
2023-04-27T11:23:38.503Z,15.45
2023-04-27T11:26:17.760Z,15.55
2023-04-27T11:28:46.355Z,15.58
2023-04-27T11:31:13.433Z,15.64
2023-04-27T11:33:48.527Z,15.84
2023-04-27T11:36:23.025Z,16.56
2023-04-27T11:38:49.996Z,16.19
2023-04-27T11:41:16.960Z,16.18
2023-04-27T11:43:49.752Z,16.13
2023-04-27T11:46:21.496Z,16.03
2023-04-27T11:48:49.150Z,15.84
2023-04-27T11:51:16.176Z,16.09
2023-04-27T11:53:48.536Z,16.34
2023-04-27T11:56:15.567Z,16.11
2023-04-27T11:58:46.291Z,16.07
2023-04-27T12:01:13.554Z,16.60
2023-04-27T12:03:43.156Z,16.26
2023-04-27T12:06:27.771Z,16.38
2023-04-27T12:08:57.834Z,16.17
2023-04-27T12:11:26.975Z,16.28
2023-04-27T12:13:54.613Z,16.47
2023-04-27T12:16:23.414Z,16.48
2023-04-27T12:18:50.952Z,16.33
2023-04-27T12:21:18.414Z,16.22
2023-04-27T12:23:45.780Z,16.29
2023-04-27T12:26:15.228Z,16.33
2023-04-27T12:28:42.503Z,16.58
2023-04-27T12:31:13.693Z,16.39
2023-04-27T12:33:40.713Z,16.43
2023-04-27T12:36:08.052Z,16.27
2023-04-27T12:38:34.944Z,16.06
2023-04-27T12:41:04.349Z,15.97
2023-04-27T12:43:35.309Z,16.22
2023-04-27T12:46:04.394Z,16.62
2023-04-27T12:48:34.463Z,16.17
2023-04-27T12:51:04.646Z,16.20
2023-04-27T12:53:32.717Z,16.35
2023-04-27T12:56:02.165Z,16.31
2023-04-27T12:58:29.217Z,16.19
2023-04-27T13:00:57.956Z,16.59
2023-04-27T13:03:25.237Z,16.48
2023-04-27T13:05:52.720Z,16.96
2023-04-27T13:08:19.474Z,16.52
2023-04-27T13:10:46.512Z,16.76
2023-04-27T13:13:13.429Z,16.27
2023-04-27T13:15:40.397Z,17.01
2023-04-27T13:18:07.235Z,17.02
2023-04-27T13:20:34.419Z,17.03
2023-04-27T13:23:01.740Z,16.45
2023-04-27T13:25:29.344Z,16.92
2023-04-27T13:28:01.709Z,16.61
2023-04-27T13:30:28.835Z,16.77
2023-04-27T13:33:01.911Z,16.71
2023-04-27T13:35:37.063Z,16.87
2023-04-27T13:38:04.111Z,16.71
2023-04-27T13:40:30.945Z,16.36
2023-04-27T13:43:01.391Z,16.60
2023-04-27T13:45:28.378Z,16.54
2023-04-27T13:47:55.634Z,16.41
2023-04-27T13:50:22.741Z,16.72
2023-04-27T13:52:49.516Z,16.73
2023-04-27T13:55:16.603Z,16.82
2023-04-27T13:57:43.375Z,16.52
2023-04-27T14:00:11.726Z,16.06
2023-04-27T14:02:40.329Z,16.26
2023-04-27T14:05:07.716Z,16.20
2023-04-27T14:07:37.464Z,16.21
2023-04-27T14:10:07.755Z,16.23
2023-04-27T14:12:35.238Z,15.96
2023-04-27T14:15:03.277Z,16.21
2023-04-27T14:17:32.497Z,16.02
2023-04-27T14:19:59.313Z,16.04
2023-04-27T14:22:26.394Z,15.88
2023-04-27T14:24:53.445Z,16.29
2023-04-27T14:27:20.216Z,16.26
2023-04-27T14:29:52.854Z,16.22
2023-04-27T14:32:20.177Z,15.95
2023-04-27T14:34:50.362Z,15.74
2023-04-27T14:37:17.910Z,15.83
2023-04-27T14:39:47.970Z,16.23
2023-04-27T14:42:16.035Z,16.17
2023-04-27T14:44:50.199Z,15.69
2023-04-27T14:47:17.105Z,16.06
2023-04-27T14:49:43.997Z,15.88
2023-04-27T14:52:11.580Z,16.33
2023-04-27T14:54:39.289Z,16.27
2023-04-27T14:57:12.613Z,15.92
2023-04-27T14:59:39.606Z,15.61
2023-04-27T15:02:09.463Z,15.54
2023-04-27T15:04:38.179Z,15.54
2023-04-27T15:07:05.500Z,15.59
2023-04-27T15:09:32.518Z,15.71
2023-04-27T15:11:59.606Z,15.88
2023-04-27T15:14:26.508Z,16.02
2023-04-27T15:16:54.283Z,15.99
2023-04-27T15:19:21.463Z,16.03
2023-04-27T15:21:49.068Z,15.71
2023-04-27T15:24:16.805Z,15.80
2023-04-27T15:26:44.316Z,15.85
2023-04-27T15:29:25.358Z,15.82
2023-04-27T15:31:53.088Z,15.76
2023-04-27T15:34:23.486Z,15.59
2023-04-27T15:36:52.069Z,15.80
2023-04-27T15:39:18.938Z,15.78
2023-04-27T15:41:45.737Z,15.78
2023-04-27T15:44:12.423Z,15.78
2023-04-27T15:46:39.401Z,15.44
2023-04-27T15:49:06.648Z,15.52
2023-04-27T15:51:33.546Z,15.75
2023-04-27T15:54:00.425Z,15.80
2023-04-27T15:56:30.953Z,15.49
2023-04-27T15:58:58.029Z,15.51
2023-04-27T16:01:26.328Z,15.55
2023-04-27T16:03:53.494Z,15.50
2023-04-27T16:06:20.476Z,15.36
2023-04-27T16:08:47.188Z,15.06
2023-04-27T16:11:14.265Z,15.16
2023-04-27T16:13:41.186Z,15.06
2023-04-27T16:16:13.429Z,15.16
2023-04-27T16:18:40.253Z,15.11
2023-04-27T16:21:07.106Z,15.25
2023-04-27T16:26:16.802Z,14.91
2023-04-27T16:28:43.482Z,14.67
2023-04-27T16:31:12.105Z,14.45
2023-04-27T16:33:38.913Z,14.56
2023-04-27T16:36:06.539Z,14.68
2023-04-27T16:38:33.380Z,14.72
2023-04-27T16:41:03.741Z,14.65
2023-04-27T16:43:33.466Z,14.45
2023-04-27T16:46:00.290Z,14.46
2023-04-27T16:48:27.589Z,14.48
2023-04-27T16:50:55.784Z,14.26
2023-04-27T16:53:22.695Z,14.25
2023-04-27T16:55:53.302Z,14.23
2023-04-27T16:58:26.181Z,13.96
2023-04-27T17:00:53.076Z,13.90
2023-04-27T17:03:20.562Z,13.90
2023-04-27T17:06:20.951Z,13.86
2023-04-27T17:08:49.721Z,13.54
2023-04-27T17:11:19.576Z,13.86
2023-04-27T17:13:47.262Z,13.49
2023-04-27T17:16:18.729Z,13.63
2023-04-27T17:18:50.815Z,13.41
2023-04-27T17:21:25.884Z,13.24
2023-04-27T17:23:54.062Z,13.30
2023-04-27T17:26:21.767Z,13.14
2023-04-27T17:28:49.523Z,13.16
2023-04-27T17:31:17.794Z,13.04
2023-04-27T17:33:46.908Z,12.89
2023-04-27T17:36:15.147Z,12.83
2023-04-27T17:38:42.065Z,12.90
2023-04-27T17:41:29.255Z,12.73
2023-04-27T17:44:00.167Z,12.88
2023-04-27T17:46:27.012Z,12.71
2023-04-27T17:48:55.020Z,12.67
2023-04-27T17:51:56.730Z,12.54
2023-04-27T17:54:30.373Z,12.63
2023-04-27T18:10:32.456Z,12.23
2023-04-27T18:13:04.211Z,12.01
2023-04-27T18:15:35.811Z,12.16
2023-04-27T18:18:05.439Z,11.85
2023-04-27T18:20:38.908Z,11.89
2023-04-27T18:23:10.310Z,12.11
2023-04-27T19:06:33.354Z,11.68
2023-04-27T19:09:12.649Z,11.61
2023-04-27T19:19:44.945Z,11.26
2023-04-27T19:22:15.821Z,11.30
2023-04-27T19:24:43.085Z,11.14
2023-04-27T19:28:02.232Z,11.01
2023-04-27T19:30:38.139Z,10.81
2023-04-27T19:33:07.571Z,10.86
2023-04-27T19:38:54.656Z,10.92
2023-04-27T19:41:22.826Z,10.85
2023-04-27T19:43:52.709Z,10.79
2023-04-27T19:46:20.925Z,10.87
2023-04-27T19:48:48.424Z,11.02
2023-04-27T19:51:17.062Z,11.12
2023-04-27T19:53:44.039Z,10.95
2023-04-27T19:56:14.775Z,10.84
2023-04-27T19:58:41.836Z,10.76
2023-04-27T20:01:13.028Z,10.70
2023-04-27T20:07:09.505Z,10.54
2023-04-27T20:09:36.534Z,10.55
2023-04-27T20:12:04.378Z,10.61
2023-04-27T20:14:35.364Z,10.43
2023-04-27T20:17:04.871Z,10.33
2023-04-27T20:19:34.025Z,10.42
2023-04-27T20:22:02.994Z,10.37
2023-04-27T20:24:29.967Z,10.36
2023-04-27T20:26:56.848Z,10.62
2023-04-27T20:29:23.822Z,10.42
2023-04-27T20:31:50.482Z,10.38
2023-04-27T20:34:18.209Z,10.21
2023-04-27T20:37:04.542Z,10.24
2023-04-27T20:39:32.396Z,10.31
2023-04-27T20:42:00.299Z,10.23
2023-04-27T20:44:28.047Z,10.40
2023-04-27T20:46:54.860Z,10.38
2023-04-27T20:49:32.003Z,10.39
2023-04-27T20:52:02.008Z,10.33
2023-04-27T20:54:32.963Z,10.24
2023-04-27T20:57:06.772Z,10.48
2023-04-27T20:59:33.660Z,10.32
2023-04-27T21:02:01.066Z,10.35
2023-04-27T21:04:28.492Z,10.10
2023-04-27T21:06:58.221Z,10.09
2023-04-27T21:09:25.111Z,9.96
2023-04-27T21:11:52.343Z,9.98
2023-04-27T21:14:19.540Z,9.97
2023-04-27T21:16:46.426Z,9.90
2023-04-27T21:19:15.476Z,9.76
2023-04-27T21:21:42.551Z,9.87
2023-04-27T21:24:10.405Z,9.99
2023-04-27T21:26:37.385Z,10.17
2023-04-27T21:29:08.517Z,10.15
2023-04-27T21:31:35.713Z,10.14
2023-04-27T21:34:03.849Z,10.25
2023-04-27T21:36:30.803Z,10.19
2023-04-27T21:38:57.650Z,9.91
2023-04-27T21:41:24.669Z,9.95
2023-04-27T21:43:51.853Z,9.85
2023-04-27T21:46:18.887Z,9.67
2023-04-27T21:48:45.738Z,9.70
2023-04-27T21:51:12.567Z,9.74
2023-04-27T21:53:41.745Z,9.73
2023-04-27T21:56:08.973Z,9.79
2023-04-27T21:58:35.845Z,9.57
2023-04-27T22:01:02.686Z,9.49
2023-04-27T22:03:29.960Z,9.50
2023-04-27T22:05:59.412Z,9.31
2023-04-27T22:08:26.493Z,9.40
2023-04-27T22:10:53.344Z,9.25
2023-04-27T22:13:20.141Z,9.12
2023-04-27T22:15:48.122Z,9.15
2023-04-27T22:21:04.981Z,9.34
2023-04-27T22:23:41.106Z,9.07
2023-04-27T22:26:08.958Z,9.48
2023-04-27T22:28:42.590Z,9.57
2023-04-27T22:33:50.769Z,9.54
2023-04-27T22:36:27.197Z,9.26
2023-04-27T22:38:54.381Z,9.42
2023-04-27T22:41:44.229Z,9.32
2023-04-27T22:44:11.409Z,9.16
2023-04-27T22:46:41.421Z,9.32
2023-04-27T22:49:08.558Z,9.16
2023-04-27T22:51:36.966Z,9.28
2023-04-27T22:54:04.405Z,9.25
2023-04-27T22:56:31.399Z,9.40
2023-04-27T22:58:58.728Z,9.35
2023-04-27T23:01:25.847Z,9.16
2023-04-27T23:03:53.513Z,9.28
2023-04-27T23:06:20.683Z,9.27
2023-04-27T23:08:48.337Z,9.07
2023-04-27T23:11:15.626Z,9.14
2023-04-27T23:13:42.588Z,9.17
2023-04-27T23:16:20.634Z,9.56
2023-04-27T23:18:50.420Z,9.39
2023-04-27T23:24:11.637Z,9.24
2023-04-27T23:26:49.340Z,8.94
2023-04-27T23:29:18.166Z,9.06
2023-04-27T23:31:44.974Z,9.17
2023-04-27T23:34:14.690Z,8.93
2023-04-27T23:36:46.534Z,9.24
2023-04-27T23:39:13.362Z,9.16
2023-04-27T23:41:40.502Z,8.88
2023-04-27T23:44:07.466Z,8.94
2023-04-27T23:46:34.670Z,8.83
2023-04-27T23:49:01.582Z,8.79
2023-04-27T23:51:33.528Z,8.45
2023-04-27T23:54:01.157Z,8.36
2023-04-27T23:56:36.716Z,8.43
2023-04-27T23:59:12.044Z,8.21
